Het weer levert geen direct gevaar op.    Er zijn geen waarschuwingen afgegeven.








webcam  webcam


webcam 2   webcam 2


Onweer radar Meer informatie blitzortung!


Regen radar Meer informatie rain snow radar


Bezoek onze andere website:

Template documentation
and downloads

And another site

weerstation wsnoordbergum

weerstationlembeke



METAR rapporten vliegvelden

   
EHAM - Amsterdam
Gewijzigd: 21-09-2019 00:55
Helder  
Helder  
   Wind: Oosten 14.8 km/h
Wind: Oosten 14.8 km/h
Temperatuur: 12°C
Dauwpunt: 9°C
Vochtigheid: 82%
Barometer: 1023 hPa
Zicht: meer dan 10 km
Bewolking: Helder
EHAM 202255Z 09008KT CAVOK 12/09 Q1023 NOSIG
EHRD - Rotterdam
Gewijzigd: 21-09-2019 00:55
Helder  
Helder  
   Wind: Oosten 13 km/h
Wind: Oosten 13 km/h
Temperatuur: 12°C
Dauwpunt: 7°C
Vochtigheid: 72%
Barometer: 1023 hPa
Bewolking: Helder
Zicht: meer dan 10 km
Bewolking: Helder
EHRD 202255Z AUTO 09007KT 9999 NCD 12/07 Q1023 NOSIG
EHLW - Leeuwarden
Gewijzigd: 21-09-2019 01:06
Nevel, Grotendeels bewolkt  
Nevel, Grotendeels bewolkt  
   Wind: Oosten 9.3 km/h
Wind: Oosten 9.3 km/h
Temperatuur: 10°C
Voelt als: 9°C
Dauwpunt: 9°C
Vochtigheid: 94%
Barometer: 1024 hPa
Bewolking: Grotendeels bewolkt
Zicht: 5 km
Bewolking: Grotendeels bewolkt 35000 ft
EHLW 202306Z AUTO 08005KT 040V130 4900 BR BKN350 10/09 Q1024 GRN
EHGG - Groningen
Gewijzigd: 21-09-2019 00:55
Nevel, Helder  
Nevel, Helder  
   Wind: ONO 3.7 km/h
Wind: ONO 3.7 km/h
Temperatuur: 7°C
Dauwpunt: 7°C
Vochtigheid: 100%
Barometer: 1025 hPa
Bewolking: Helder
Zicht: 4 km
Bewolking: Helder
EHGG 202255Z AUTO 07002KT 4100 BR NCD 07/07 Q1025
  

Script ontwikkeld door  Saratoga-weather.org Aangepast voor de template door  Weerstation Leuven

U vindt ons ook hier:

Het Weer Aktueel

European Weather Network

WeatherCloud

Weather Underground

AWEKAS

HAMweather, WeatherForYou, PWS Weather

Apparatuur in gebruik:

Weerstation
Davis VP2

Weerprogramma
Meteobridge

Weercomputer
Asus WL -330N3G

Webleverancier
Hostnet

Davis VP2

Meteobridge

Asus WL -330N3G

Hostnet